This is the latest recevied weather packets stored in our database for station/object HP1CDW-13. If no packets are shown the sender has not sent any weather packets the latest 10 day(s).
| Time | Temp. | Humidity | Pressure | Rain* | Wind** | Luminosity | Snow |
|---|---|---|---|---|---|---|---|
| 1777931690 | 29.44° C | 83% | 1011.9 hPa | 0 mm | - | - | - |
| 1777931090 | 29.44° C | 82% | 1012 hPa | 0 mm | - | - | - |
| 1777930490 | 30° C | 81% | 1012 hPa | 0 mm | - | - | - |
| 1777929890 | 30° C | 81% | 1012.1 hPa | 0 mm | - | - | - |
| 1777929290 | 30° C | 81% | 1012.1 hPa | 0 mm | - | - | - |
| 1777928690 | 30° C | 81% | 1012.3 hPa | 0 mm | - | - | - |
| 1777928090 | 30° C | 79% | 1012.3 hPa | 0 mm | - | - | - |
| 1777927490 | 30° C | 79% | 1012.3 hPa | 0 mm | - | - | - |
| 1777926890 | 30.56° C | 76% | 1012.2 hPa | 0 mm | - | - | - |
| 1777926290 | 30.56° C | 75% | 1012.3 hPa | 0 mm | - | - | - |
| 1777925690 | 30.56° C | 76% | 1012.3 hPa | 0 mm | - | - | - |
| 1777925090 | 30° C | 76% | 1012.5 hPa | 0 mm | - | - | - |
| 1777924490 | 30.56° C | 75% | 1012.6 hPa | 0 mm | - | - | - |
| 1777923890 | 30.56° C | 74% | 1012.6 hPa | 0 mm | - | - | - |
| 1777923290 | 30° C | 74% | 1012.6 hPa | 0 mm | - | - | - |
| 1777922690 | 30.56° C | 74% | 1012.7 hPa | 0 mm | - | - | - |
| 1777922090 | 30.56° C | 73% | 1012.7 hPa | 0 mm | - | - | - |
| 1777921490 | 31.11° C | 73% | 1012.8 hPa | 0 mm | - | - | - |
| 1777920890 | 31.67° C | 74% | 1012.8 hPa | 0 mm | - | - | - |
| 1777920290 | 31.67° C | 74% | 1012.8 hPa | 0 mm | - | - | - |
| 1777919690 | 31.67° C | 74% | 1013 hPa | 0 mm | - | - | - |
| 1777919090 | 31.11° C | 75% | 1013 hPa | 0 mm | - | - | - |
| 1777918490 | 32.22° C | 72% | 1013.4 hPa | 0 mm | - | - | - |
| 1777917890 | 32.78° C | 70% | 1013.5 hPa | 0 mm | - | - | - |
| 1777917290 | 31.67° C | 73% | 1013.7 hPa | 0 mm | - | - | - |
* Rain latest hour (hover to see other rain measurements)
** Current wind speed in m/s (hover to see current wind gust speed)